Latest Weather Observations for Goulburn Airport

IDN60801

Issued at 7:35 pm EST Wednesday 23 April 2014 (issued every 30 minutes, with the page automatically refreshed every 10 minutes)

About weather observations | Map of weather stations | Latest weather observations for NSW | Other Formats
Station Details ID: 070330 Name: GOULBURN AIRPORT AWS Lat: -34.81 Lon: 149.73 Height: 640.0 m
Data from the previous 72 hours. | See also: Recent months at Goulburn Airport
Date/Time
EST
Temp
°C
App
Temp
°C
Dew
Point
Rel
Hum
%
Delta-T
°C
Wind Press
QNH
hPa
Press
MSL
hPa
Rain
since 9 am
mm
Dir
 
Spd
km/h
Gust
km/h
Spd
kts
Gust
kts
23/07:30pm 10.9 9.3 7.8 81 1.6 N 6 9 3 5 1017.0 - 0.0
23/07:00pm 11.4 10.9 7.9 79 1.8 N 0 0 0 0 1017.1 - 0.0
23/06:30pm 11.8 10.4 7.3 74 2.2 NNW 4 6 2 3 1017.0 - 0.0
23/06:00pm 14.0 12.2 8.0 67 3.1 N 7 9 4 5 1016.8 1015.7 0.0
23/05:30pm 15.1 12.8 9.0 67 3.2 WNW 11 13 6 7 1016.5 - 0.0
23/05:00pm 19.0 17.1 9.2 53 5.3 NW 9 11 5 6 1016.3 - 0.0
23/04:30pm 20.1 17.6 8.4 47 6.3 NNW 11 15 6 8 1016.2 - 0.0
23/04:00pm 20.5 16.6 7.2 42 7.0 NNW 17 22 9 12 1016.2 - 0.0
23/03:30pm 20.4 16.9 7.4 43 6.9 NNW 15 19 8 10 1016.5 - 0.0
23/03:00pm 20.4 16.7 8.1 45 6.6 NW 17 20 9 11 1016.7 1015.6 0.0
23/02:30pm 20.4 17.1 8.1 45 6.6 NW 15 20 8 11 1016.8 - 0.0
23/02:00pm 20.4 17.7 9.0 48 6.2 NW 13 17 7 9 1017.1 - 0.0
23/01:30pm 18.8 15.5 6.3 44 6.4 W 13 17 7 9 1017.3 - 0.0
23/01:00pm 19.2 16.9 9.1 52 5.5 SW 11 15 6 8 1017.6 - 0.0
23/12:30pm 19.8 17.4 8.5 48 6.1 SSW 11 15 6 8 1018.0 - 0.0
23/12:00pm 19.2 15.4 7.6 47 6.1 SW 17 22 9 12 1018.7 1017.6 0.0
23/11:30am 19.3 17.1 9.5 53 5.4 SSW 11 17 6 9 1019.2 - 0.0
23/11:00am 18.5 17.2 10.1 58 4.6 S 7 11 4 6 1019.5 - 0.0
23/10:30am 17.2 15.3 9.1 59 4.3 SW 9 13 5 7 1019.7 - 0.0
23/10:00am 16.0 14.7 9.9 67 3.3 W 7 13 4 7 1020.0 - 0.0
23/09:30am 14.8 13.2 8.7 67 3.2 N 7 11 4 6 1019.8 - 0.0
23/09:00am 12.9 12.8 9.5 80 1.8 CALM 0 0 0 0 1019.8 1018.8 0.0
23/08:30am 10.2 9.4 8.3 88 1.0 NE 2 6 1 3 1020.1 - 0.0
23/08:00am 7.7 7.1 7.3 97 0.2 CALM 0 0 0 0 1020.1 - 0.0
23/07:30am 4.9 3.7 4.5 97 0.2 CALM 0 0 0 0 1019.7 - 0.0
23/07:00am 4.1 2.3 3.5 96 0.3 ESE 2 7 1 4 1019.3 - 0.0
23/06:30am 3.6 1.0 3.0 96 0.3 E 6 9 3 5 1019.4 - 0.0
23/06:00am 3.8 1.6 3.2 96 0.3 WSW 4 9 2 5 1019.2 1018.1 0.0
23/05:30am 3.0 1.0 2.4 96 0.2 S 2 9 1 5 1018.8 - 0.0
23/05:00am 3.4 1.9 2.8 96 0.3 CALM 0 0 0 0 1018.6 - 0.0
23/04:30am 3.1 0.8 2.5 96 0.2 SSW 4 7 2 4 1018.9 - 0.0
23/04:00am 3.4 1.8 2.7 95 0.3 CALM 0 0 0 0 1018.7 - 0.0
23/03:30am 3.4 1.5 2.7 95 0.3 E 2 7 1 4 1018.5 - 0.0
23/03:00am 3.2 0.5 2.5 95 0.3 S 6 7 3 4 1018.6 1017.5 0.0
23/02:30am 4.1 2.7 3.4 95 0.3 CALM 0 0 0 0 1018.4 - 0.0
23/02:00am 3.8 1.0 2.9 94 0.4 N 7 9 4 5 1018.6 - 0.0
23/01:30am 3.9 1.1 2.9 93 0.4 NNW 7 9 4 5 1018.9 - 0.0
23/01:00am 4.0 2.5 3.0 93 0.4 CALM 0 0 0 0 1019.0 - 0.0
23/12:30am 4.2 2.8 3.3 94 0.4 CALM 0 0 0 0 1019.2 - 0.0
23/12:00am 5.0 3.7 4.3 95 0.3 ESE 0 0 0 0 1019.2 1018.1 0.0
 
Date/Time
EST
Temp
°C
App
Temp
°C
Dew
Point
Rel
Hum
%
Delta-T
°C
Wind Press
QNH
hPa
Press
MSL
hPa
Rain
since 9 am
mm
Dir
 
Spd
km/h
Gust
km/h
Spd
kts
Gust
kts
22/11:30pm 4.2 2.7 2.9 91 0.6 CALM 0 0 0 0 1019.3 - 0.0
22/11:00pm 5.8 4.6 4.4 91 0.6 CALM 0 0 0 0 1019.5 - 0.0
22/10:30pm 6.5 4.1 4.2 85 1.0 N 6 9 3 5 1019.5 - 0.0
22/10:00pm 7.4 4.9 4.5 82 1.3 NNW 7 13 4 7 1019.4 - 0.0
22/09:30pm 9.3 5.7 6.6 83 1.3 NW 15 17 8 9 1019.5 - 0.0
22/09:00pm 10.4 7.5 6.7 78 1.8 N 11 15 6 8 1019.5 1018.5 0.0
22/08:30pm 9.0 7.0 6.3 83 1.3 N 6 9 3 5 1019.3 - 0.0
22/08:00pm 11.0 8.6 7.1 77 1.9 NNW 9 13 5 7 1019.1 - 0.0
22/07:30pm 10.9 9.1 7.2 78 1.8 N 6 9 3 5 1019.0 - 0.0
22/07:00pm 12.2 7.5 7.9 75 2.2 NW 22 28 12 15 1018.6 - 0.0
22/06:30pm 12.4 8.7 8.1 75 2.2 NW 17 20 9 11 1018.5 - 0.0
22/06:00pm 13.3 10.4 8.0 70 2.7 NW 13 19 7 10 1018.3 1017.2 0.0
22/05:30pm 13.9 9.3 8.3 69 2.9 WNW 22 26 12 14 1018.0 - 0.0
22/05:00pm 15.1 11.4 8.1 63 3.6 W 17 20 9 11 1018.1 - 0.0
22/04:30pm 16.1 12.1 8.1 59 4.2 W 19 26 10 14 1017.9 - 0.0
22/04:00pm 16.7 12.6 8.7 59 4.2 WNW 20 28 11 15 1017.6 - 0.0
22/03:30pm 17.6 13.5 7.9 53 5.1 W 19 24 10 13 1017.6 - 0.0
22/03:00pm 17.9 13.8 8.5 54 5.0 W 20 24 11 13 1017.4 1016.3 0.0
22/02:30pm 18.1 14.2 8.7 54 5.0 NW 19 22 10 12 1017.4 - 0.0
22/02:00pm 18.2 14.7 8.7 54 5.1 WNW 17 24 9 13 1017.5 - 0.0
22/01:30pm 18.2 14.1 8.7 54 5.1 W 20 26 11 14 1017.5 - 0.0
22/01:00pm 17.9 12.6 6.7 48 5.8 W 24 30 13 16 1017.7 - 0.0
22/12:30pm 18.8 13.6 7.3 47 6.0 W 24 32 13 17 1018.3 - 0.0
22/12:00pm 18.3 14.1 8.3 52 5.3 W 20 30 11 16 1018.6 1017.5 0.0
22/11:30am 18.8 13.9 8.5 51 5.5 W 24 30 13 16 1018.8 - 0.0
22/11:00am 17.8 13.3 8.4 54 5.0 W 22 32 12 17 1019.3 - 0.0
22/10:30am 16.8 12.7 8.5 58 4.4 WNW 20 28 11 15 1019.6 - 0.0
22/10:00am 15.3 11.3 8.1 62 3.7 WNW 19 24 10 13 1019.8 - 0.0
22/09:30am 13.8 10.9 9.5 75 2.3 NNW 15 20 8 11 1020.1 - 0.0
22/09:00am 12.0 10.2 9.6 85 1.3 N 9 13 5 7 1020.2 1019.1 0.0
22/08:30am 9.7 8.2 9.1 96 0.3 NNE 7 9 4 5 1020.4 - 0.0
22/08:00am 7.7 5.4 7.4 98 0.1 N 9 11 5 6 1020.3 - 0.0
22/07:30am 4.7 2.3 4.4 98 0.1 N 6 9 3 5 1020.0 - 0.0
22/07:00am 3.2 1.7 2.8 97 0.2 CALM 0 0 0 0 1019.7 - 0.0
22/06:57am 3.1 1.5 2.7 97 0.2 CALM 0 0 0 0 1019.7 - 0.0
22/06:43am 2.8 1.2 2.4 97 0.2 CALM 0 0 0 0 1019.7 - 0.0
22/06:30am 3.0 1.4 2.6 97 0.2 CALM 0 0 0 0 1019.6 - 0.0
22/06:00am 2.9 1.3 2.5 97 0.2 CALM 0 0 0 0 1019.6 1018.6 0.0
22/05:44am 3.0 1.4 2.6 97 0.2 CALM 0 0 0 0 1019.6 - 0.0
22/05:30am 2.8 1.2 2.4 97 0.2 CALM 0 0 0 0 1019.8 - 0.0
22/05:29am 2.8 1.2 2.4 97 0.2 CALM 0 0 0 0 1019.8 - 0.0
22/05:00am 2.5 -0.3 2.1 97 0.2 N 6 9 3 5 1020.1 - 0.0
22/04:47am 2.8 1.2 2.4 97 0.2 CALM 0 0 0 0 1020.2 - 0.0
22/04:30am 3.6 2.1 3.2 97 0.2 CALM 0 0 0 0 1020.1 - 0.0
22/04:00am 3.9 1.4 3.5 97 0.2 N 6 7 3 4 1019.8 - 0.0
22/03:30am 3.6 2.1 3.0 96 0.3 CALM 0 0 0 0 1019.7 - 0.0
22/03:00am 4.5 3.2 4.1 97 0.2 CALM 0 0 0 0 1019.7 1018.7 0.0
22/02:30am 5.1 2.8 4.7 97 0.2 N 6 6 3 3 1020.2 - 0.0
22/02:28am 5.1 2.8 4.7 97 0.2 N 6 7 3 4 1020.2 - 0.0
22/02:00am 4.3 2.5 3.7 96 0.3 N 2 7 1 4 1020.4 - 0.0
22/01:48am 4.3 2.9 3.7 96 0.3 CALM 0 0 0 0 1020.6 - 0.0
22/01:30am 4.3 2.9 3.7 96 0.3 CALM 0 0 0 0 1020.7 - 0.0
22/01:00am 3.9 2.4 3.2 95 0.3 CALM 0 0 0 0 1020.9 - 0.0
22/12:30am 6.4 4.2 6.0 97 0.2 WNW 7 9 4 5 1021.0 - 0.0
22/12:22am 6.1 4.4 5.7 97 0.2 WSW 4 7 2 4 1021.1 - 0.0
22/12:00am 5.1 3.9 4.5 96 0.3 CALM 0 0 0 0 1021.0 1020.0 0.0
 
Date/Time
EST
Temp
°C
App
Temp
°C
Dew
Point
Rel
Hum
%
Delta-T
°C
Wind Press
QNH
hPa
Press
MSL
hPa
Rain
since 9 am
mm
Dir
 
Spd
km/h
Gust
km/h
Spd
kts
Gust
kts
21/11:30pm 4.9 3.6 4.2 95 0.3 CALM 0 0 0 0 1021.1 - 0.0
21/11:26pm 5.2 4.0 4.5 95 0.3 CALM 0 0 0 0 1021.1 - 0.0
21/11:21pm 4.8 3.5 4.1 95 0.3 CALM 0 0 0 0 1021.2 - 0.0
21/11:00pm 6.0 4.9 5.3 95 0.3 CALM 0 0 0 0 1021.2 - 0.0
21/10:35pm 7.2 6.4 6.5 95 0.3 CALM 0 0 0 0 1021.3 - 0.0
21/10:30pm 7.1 6.3 6.4 95 0.3 CALM 0 0 0 0 1021.3 - 0.0
21/10:00pm 7.5 6.8 6.8 95 0.3 CALM 0 0 0 0 1021.5 - 0.0
21/09:30pm 7.2 5.1 6.0 92 0.6 SE 6 7 3 4 1021.5 - 0.0
21/09:00pm 8.8 8.2 7.6 92 0.6 CALM 0 0 0 0 1021.5 1020.5 0.0
21/08:30pm 9.5 7.8 8.4 93 0.6 NW 7 9 4 5 1021.4 - 0.0
21/08:00pm 11.3 10.0 9.9 91 0.7 N 7 9 4 5 1021.0 - 0.0
21/07:30pm 10.9 9.4 9.3 90 0.8 NNE 7 13 4 7 1020.9 - 0.0
21/07:00pm 10.1 8.7 7.3 83 1.4 ENE 4 7 2 4 1020.9 - 0.0
21/06:30pm 11.8 11.5 8.8 82 1.5 CALM 0 0 0 0 1020.8 - 0.0
21/06:00pm 11.7 11.1 7.2 74 2.2 CALM 0 0 0 0 1020.6 1019.5 0.0
21/05:30pm 14.1 12.5 7.9 66 3.2 N 6 6 3 3 1020.2 - 0.0
21/05:00pm 16.0 14.6 9.4 65 3.5 NNE 7 9 4 5 1019.7 - 0.0
21/04:30pm 17.2 15.4 9.4 60 4.2 NNE 9 13 5 7 1019.5 - 0.0
21/04:00pm 17.7 15.3 8.8 56 4.8 NNE 11 17 6 9 1019.6 - 0.0
21/03:30pm 18.0 15.6 8.8 55 4.9 NNE 11 19 6 10 1019.5 - 0.0
21/03:00pm 18.0 15.3 8.8 55 4.9 NNE 13 17 7 9 1020.0 1018.9 0.0
21/02:30pm 17.9 14.8 8.7 55 4.9 NNE 15 22 8 12 1019.8 - 0.0
21/02:00pm 18.0 14.5 8.8 55 4.9 NNE 17 20 9 11 1019.7 - 0.0
21/01:30pm 17.7 14.7 9.3 58 4.5 N 15 20 8 11 1020.0 - 0.0
21/01:00pm 16.8 13.9 8.2 57 4.5 N 13 20 7 11 1020.2 - 0.0
21/12:30pm 16.8 14.1 8.8 59 4.3 NE 13 20 7 11 1020.5 - 0.0
21/12:00pm 15.6 14.1 9.3 66 3.3 E 7 11 4 6 1021.1 1020.1 0.0
21/11:30am 14.8 13.3 9.0 68 3.1 W 7 11 4 6 1021.5 - 0.0
21/11:00am 13.0 11.0 7.2 68 2.9 SSE 7 11 4 6 1021.9 - 0.0
21/10:34am 12.6 11.1 6.9 68 2.8 SSW 4 9 2 5 1022.2 - 0.0
21/10:30am 12.7 11.3 7.2 69 2.8 S 4 7 2 4 1022.2 - 0.0
21/10:00am 11.1 9.2 6.5 73 2.2 W 6 9 3 5 1022.4 - 0.0
21/09:30am 9.5 7.2 5.5 76 1.9 NNW 7 9 4 5 1022.6 - 0.0
21/09:00am 8.3 5.5 5.1 80 1.5 W 9 11 5 6 1022.5 1021.5 0.0
21/08:30am 7.1 4.5 4.4 83 1.2 N 7 9 4 5 1022.2 - 0.0
21/08:00am 6.3 3.3 4.3 87 0.9 NNW 9 11 5 6 1022.0 - 0.0
21/07:30am 5.4 2.5 4.4 93 0.4 N 9 11 5 6 1021.8 - 0.0
21/07:00am 4.0 2.6 3.6 97 0.2 CALM 0 0 0 0 1021.4 - 0.0
21/06:30am 3.3 1.8 2.9 97 0.2 CALM 0 0 0 0 1021.1 - 0.0
21/06:00am 2.6 0.6 2.2 97 0.2 NNE 2 7 1 4 1020.8 1019.8 0.0
21/05:30am 1.3 -0.6 0.7 96 0.2 CALM 0 6 0 3 1020.7 - 0.0
21/05:21am 1.1 -1.6 0.5 96 0.2 N 4 6 2 3 1020.5 - 0.0
21/05:00am 0.7 -2.6 0.0 95 0.3 N 7 9 4 5 1020.4 - 0.0
21/04:30am 0.9 -2.4 0.3 96 0.2 N 7 11 4 6 1020.2 - 0.0
21/04:00am 1.3 -1.3 0.7 96 0.2 N 4 9 2 5 1019.7 - 0.0
21/03:30am 0.9 -3.1 0.3 96 0.2 N 11 13 6 7 1019.5 - 0.0
21/03:00am 0.4 -3.4 -0.4 94 0.3 N 9 11 5 6 1019.7 1018.7 0.0
21/02:30am 1.3 -2.0 0.4 94 0.3 NNW 7 9 4 5 1020.0 - 0.0
21/02:00am 0.7 -2.7 -0.4 92 0.4 ESE 7 9 4 5 1020.1 - 0.0
21/01:30am 2.0 0.2 1.0 93 0.4 CALM 0 0 0 0 1020.1 - 0.0
21/01:00am 2.0 -1.1 0.4 89 0.6 NW 6 9 3 5 1020.1 - 0.0
21/12:30am 4.2 1.5 2.4 88 0.8 N 6 9 3 5 1020.2 - 0.0
21/12:00am 4.9 0.9 2.9 87 0.9 WNW 13 20 7 11 1020.0 1018.9 0.0
 
Date/Time
EST
Temp
°C
App
Temp
°C
Dew
Point
Rel
Hum
%
Delta-T
°C
Wind Press
QNH
hPa
Press
MSL
hPa
Rain
since 9 am
mm
Dir
 
Spd
km/h
Gust
km/h
Spd
kts
Gust
kts
20/11:30pm 3.9 1.8 1.9 87 0.8 NW 2 6 1 3 1020.1 - 0.0
20/11:00pm 4.4 1.4 1.9 84 1.0 N 7 15 4 8 1020.1 - 0.0
20/10:30pm 5.4 2.2 2.8 83 1.1 N 9 13 5 7 1020.1 - 0.0
20/10:00pm 4.7 0.6 2.4 85 1.0 N 13 15 7 8 1020.0 - 0.0
20/09:30pm 6.9 2.0 3.9 81 1.3 WNW 19 22 10 12 1019.8 - 0.0
20/09:00pm 5.8 2.7 3.8 87 0.9 NNW 9 11 5 6 1020.0 1018.9 0.0
20/08:30pm 4.8 1.1 2.3 84 1.0 NW 11 13 6 7 1019.8 - 0.0
20/08:00pm 5.9 2.8 3.6 85 1.0 W 9 11 5 6 1019.5 - 0.0

Other Formats:

Comma delimited format used in spreadsheet applications
http://www.bom.gov.au/fwo/IDN60801/IDN60801.95716.axf

JavaScript Object Notation format (JSON) in row-major order
http://www.bom.gov.au/fwo/IDN60801/IDN60801.95716.json